Time;durP1;ratioP1;P1;durP2;ratioP2;P2;SDS_P1;SDS_P2;PMS_P1;PMS_P2;Temp;Humidity;BMP_temperature;BMP_pressure;BME280_temperature;BME280_humidity;BME280_pressure;Samples;Min_cycle;Max_cycle;Signal;HPM_P1;HPM_P2
2022/03/18 00:03:55;;;;;;;13.35;9.32;;;;;;;;;;10311011;28;20075;-53
2022/03/18 00:08:54;;;;;;;15.68;10.05;;;;;;;;;;10320760;28;20425;-53
2022/03/18 00:13:52;;;;;;;14.50;9.20;;;;;;;;;;10320718;28;20079;-52
2022/03/18 00:18:51;;;;;;;13.27;8.57;;;;;;;;;;10319558;28;20088;-51
2022/03/18 00:23:50;;;;;;;12.88;8.25;;;;;;;;;;10303999;28;20495;-47
2022/03/18 00:28:48;;;;;;;14.50;9.73;;;;;;;;;;10286708;28;20495;-52
2022/03/18 00:33:46;;;;;;;11.55;8.48;;;;;;;;;;10286759;28;20048;-51
2022/03/18 00:38:46;;;;;;;17.92;11.30;;;;;;;;;;10319268;28;20147;-53
2022/03/18 00:43:44;;;;;;;19.25;11.15;;;;;;;;;;10319066;28;20084;-49
2022/03/18 00:53:59;;;;;;;16.52;11.07;;;;;;;;;;10278361;28;20087;-51
2022/03/18 00:58:58;;;;;;;17.83;11.95;;;;;;;;;;10278274;28;20072;-48
2022/03/18 01:03:56;;;;;;;19.55;13.23;;;;;;;;;;10277590;28;20091;-52
2022/03/18 01:08:54;;;;;;;26.88;16.45;;;;;;;;;;10277761;28;20055;-52
2022/03/18 01:13:54;;;;;;;22.92;13.95;;;;;;;;;;10277818;28;20339;-52
2022/03/18 01:18:52;;;;;;;23.35;14.85;;;;;;;;;;10276623;28;20095;-53
2022/03/18 01:23:50;;;;;;;28.88;15.30;;;;;;;;;;10276890;28;20084;-53
2022/03/18 01:28:48;;;;;;;30.02;15.25;;;;;;;;;;10276777;28;20418;-53
2022/03/18 01:33:48;;;;;;;25.25;15.52;;;;;;;;;;10277026;28;20041;-53
2022/03/18 01:38:47;;;;;;;25.58;14.57;;;;;;;;;;10276646;28;20067;-52
2022/03/18 01:43:46;;;;;;;22.23;12.48;;;;;;;;;;10276285;28;20081;-49
2022/03/18 01:48:44;;;;;;;19.35;12.57;;;;;;;;;;10275559;28;20049;-51
2022/03/18 01:53:45;;;;;;;23.73;14.70;;;;;;;;;;10276045;28;20490;-53
2022/03/18 01:58:43;;;;;;;27.13;13.25;;;;;;;;;;10276172;28;20061;-49
2022/03/18 02:03:41;;;;;;;20.63;12.23;;;;;;;;;;10275168;28;20095;-51
2022/03/18 02:08:44;;;;;;;22.27;12.70;;;;;;;;;;10275450;28;20045;-51
2022/03/18 02:13:43;;;;;;;15.13;11.10;;;;;;;;;;10275446;28;20108;-51
2022/03/18 02:18:42;;;;;;;16.58;11.07;;;;;;;;;;10277379;28;20088;-51
2022/03/18 02:23:42;;;;;;;14.85;10.65;;;;;;;;;;10281723;28;20079;-53
2022/03/18 02:28:40;;;;;;;16.48;10.38;;;;;;;;;;10315405;28;20135;-54
2022/03/18 02:33:38;;;;;;;18.20;11.10;;;;;;;;;;10315329;28;20087;-50
2022/03/18 02:38:36;;;;;;;18.98;10.35;;;;;;;;;;10302787;28;20061;-52
2022/03/18 02:43:36;;;;;;;18.70;11.18;;;;;;;;;;10274489;28;20106;-52
2022/03/18 02:48:40;;;;;;;15.65;10.40;;;;;;;;;;10273468;28;20080;-50
2022/03/18 02:53:38;;;;;;;19.85;11.68;;;;;;;;;;10273287;28;20064;-51
2022/03/18 02:58:38;;;;;;;18.27;11.35;;;;;;;;;;10273818;28;20077;-49
2022/03/18 03:03:36;;;;;;;14.23;9.82;;;;;;;;;;10281082;28;20080;-53
2022/03/18 03:08:34;;;;;;;15.82;10.35;;;;;;;;;;10282435;28;20527;-52
2022/03/18 03:13:33;;;;;;;17.80;9.82;;;;;;;;;;10282182;28;20081;-47
2022/03/18 03:18:33;;;;;;;14.38;9.55;;;;;;;;;;10281206;28;20076;-51
2022/03/18 03:23:31;;;;;;;13.63;9.20;;;;;;;;;;10281534;28;20076;-52
2022/03/18 03:28:29;;;;;;;17.48;10.77;;;;;;;;;;10281609;28;20430;-53
2022/03/18 03:33:28;;;;;;;13.32;9.20;;;;;;;;;;10280924;28;20048;-52
2022/03/18 03:38:27;;;;;;;20.80;10.93;;;;;;;;;;10281158;28;20533;-50
2022/03/18 03:43:25;;;;;;;18.38;11.63;;;;;;;;;;10280957;28;20092;-54
2022/03/18 03:48:24;;;;;;;15.32;10.25;;;;;;;;;;10280773;28;20073;-51
2022/03/18 03:53:22;;;;;;;17.00;10.88;;;;;;;;;;10280673;28;20077;-48
2022/03/18 03:58:21;;;;;;;16.70;9.57;;;;;;;;;;10280490;28;20037;-48
2022/03/18 04:03:20;;;;;;;19.35;9.45;;;;;;;;;;10279459;28;20103;-53
2022/03/18 04:08:18;;;;;;;15.02;9.85;;;;;;;;;;10280262;28;20041;-49
2022/03/18 04:13:16;;;;;;;16.27;12.90;;;;;;;;;;10279863;28;20048;-53
2022/03/18 04:18:16;;;;;;;31.48;19.50;;;;;;;;;;10278943;28;20105;-49
2022/03/18 04:23:14;;;;;;;50.95;25.05;;;;;;;;;;10278604;28;20414;-51
2022/03/18 04:28:12;;;;;;;29.13;18.35;;;;;;;;;;10281565;28;20057;-51
2022/03/18 04:33:11;;;;;;;32.88;23.13;;;;;;;;;;10319178;28;20067;-49
2022/03/18 04:38:10;;;;;;;37.17;21.67;;;;;;;;;;10288853;28;20077;-48
2022/03/18 04:43:08;;;;;;;32.15;21.23;;;;;;;;;;10278565;28;20501;-52
2022/03/18 04:48:07;;;;;;;25.58;17.35;;;;;;;;;;10278575;28;20040;-49
2022/03/18 04:53:05;;;;;;;30.00;20.83;;;;;;;;;;10288620;28;20036;-50
2022/03/18 04:58:05;;;;;;;32.60;19.70;;;;;;;;;;10286195;28;20076;-50
2022/03/18 05:03:03;;;;;;;29.45;15.70;;;;;;;;;;10290588;28;20451;-52
2022/03/18 05:08:02;;;;;;;22.60;14.90;;;;;;;;;;10293312;28;20103;-53
2022/03/18 05:13:00;;;;;;;25.55;14.30;;;;;;;;;;10277671;28;20183;-52
2022/03/18 05:17:59;;;;;;;18.90;12.00;;;;;;;;;;10283631;28;20075;-52
2022/03/18 05:22:59;;;;;;;18.52;11.13;;;;;;;;;;10292368;28;20076;-50
2022/03/18 05:27:58;;;;;;;32.28;14.35;;;;;;;;;;10295708;28;20494;-52
2022/03/18 05:32:56;;;;;;;23.50;12.23;;;;;;;;;;10291960;28;20068;-53
2022/03/18 05:37:56;;;;;;;15.82;10.93;;;;;;;;;;10292182;28;20064;-53
2022/03/18 05:42:54;;;;;;;17.38;10.30;;;;;;;;;;10290685;28;20072;-54
2022/03/18 05:47:52;;;;;;;17.48;10.82;;;;;;;;;;10281896;28;20450;-49
2022/03/18 05:52:51;;;;;;;20.67;13.15;;;;;;;;;;10275048;28;20052;-52
2022/03/18 05:57:52;;;;;;;33.22;20.15;;;;;;;;;;10271676;28;20069;-53
2022/03/18 06:02:50;;;;;;;22.92;13.30;;;;;;;;;;10270436;28;20506;-51
2022/03/18 06:07:49;;;;;;;21.92;14.35;;;;;;;;;;10271437;28;20194;-53
2022/03/18 06:12:48;;;;;;;20.90;13.90;;;;;;;;;;10284970;28;20689;-53
2022/03/18 06:17:47;;;;;;;18.95;10.82;;;;;;;;;;10301713;28;20087;-54
2022/03/18 06:22:45;;;;;;;16.95;11.93;;;;;;;;;;10286128;28;20556;-53
2022/03/18 06:27:44;;;;;;;18.23;12.00;;;;;;;;;;10278619;28;20079;-52
2022/03/18 06:32:42;;;;;;;18.52;13.07;;;;;;;;;;10284908;28;20132;-54
2022/03/18 06:37:41;;;;;;;15.32;9.00;;;;;;;;;;10280579;28;20358;-52
2022/03/18 06:42:40;;;;;;;16.60;10.88;;;;;;;;;;10281593;28;20041;-53
2022/03/18 06:47:39;;;;;;;14.75;10.48;;;;;;;;;;10281516;28;20084;-52
2022/03/18 06:52:37;;;;;;;14.80;10.65;;;;;;;;;;10281987;28;20041;-51
2022/03/18 06:57:37;;;;;;;39.28;21.70;;;;;;;;;;10281515;28;20072;-55
2022/03/18 07:02:35;;;;;;;22.90;15.27;;;;;;;;;;10319224;28;20080;-55
2022/03/18 07:07:34;;;;;;;19.67;11.05;;;;;;;;;;10321394;28;20083;-53
2022/03/18 07:12:33;;;;;;;16.13;11.10;;;;;;;;;;10295786;28;20403;-54
2022/03/18 07:22:58;;;;;;;15.77;11.15;;;;;;;;;;10278274;28;20073;-54
2022/03/18 07:27:57;;;;;;;22.20;15.90;;;;;;;;;;10278583;28;20451;-52
2022/03/18 07:32:56;;;;;;;13.48;10.85;;;;;;;;;;10273587;28;20095;-52
2022/03/18 07:37:55;;;;;;;17.48;10.20;;;;;;;;;;10272324;28;20442;-53
2022/03/18 07:42:54;;;;;;;22.42;15.95;;;;;;;;;;10270548;28;20091;-52
2022/03/18 07:47:52;;;;;;;29.33;20.70;;;;;;;;;;10274781;28;20478;-53
2022/03/18 07:52:52;;;;;;;20.63;14.00;;;;;;;;;;10280522;28;20049;-51
2022/03/18 07:57:50;;;;;;;18.88;12.25;;;;;;;;;;10279492;28;20076;-54
2022/03/18 08:02:50;;;;;;;13.82;10.20;;;;;;;;;;10278828;28;20434;-53
2022/03/18 08:07:48;;;;;;;21.70;12.45;;;;;;;;;;10279114;28;20719;-54
2022/03/18 08:12:48;;;;;;;15.23;11.43;;;;;;;;;;10278871;28;20068;-53
2022/03/18 08:17:51;;;;;;;16.25;10.60;;;;;;;;;;10276892;28;20045;-54
2022/03/18 08:22:51;;;;;;;15.77;11.27;;;;;;;;;;10279285;28;20540;-49
2022/03/18 08:27:51;;;;;;;16.48;10.65;;;;;;;;;;10278420;28;20517;-53
2022/03/18 08:32:49;;;;;;;12.35;9.23;;;;;;;;;;10278340;28;20045;-50
2022/03/18 08:38:00;;;;;;;12.98;9.05;;;;;;;;;;10278314;28;20041;-53
2022/03/18 08:43:00;;;;;;;12.27;8.90;;;;;;;;;;10278951;28;20045;-54
2022/03/18 08:47:59;;;;;;;12.60;9.10;;;;;;;;;;10277219;28;20425;-54
2022/03/18 08:52:58;;;;;;;10.23;8.25;;;;;;;;;;10277472;28;20048;-53
2022/03/18 08:57:56;;;;;;;15.85;11.95;;;;;;;;;;10277569;28;20052;-54
2022/03/18 09:02:56;;;;;;;12.57;9.90;;;;;;;;;;10276832;28;20048;-53
2022/03/18 09:07:54;;;;;;;13.07;8.15;;;;;;;;;;10277335;28;20076;-53
2022/03/18 09:12:56;;;;;;;15.07;9.50;;;;;;;;;;10277271;28;20048;-53
2022/03/18 09:17:56;;;;;;;14.20;9.20;;;;;;;;;;10275629;28;20077;-53
2022/03/18 09:22:54;;;;;;;17.67;10.02;;;;;;;;;;10273914;28;20045;-52
2022/03/18 09:27:52;;;;;;;14.10;8.52;;;;;;;;;;10276580;28;20099;-49
2022/03/18 09:33:12;;;;;;;9.77;8.02;;;;;;;;;;10277137;28;20079;-53
2022/03/18 09:38:10;;;;;;;13.43;9.82;;;;;;;;;;10276437;28;20060;-52
2022/03/18 09:43:09;;;;;;;12.95;7.18;;;;;;;;;;10277067;28;20077;-53
2022/03/18 09:48:09;;;;;;;13.18;7.93;;;;;;;;;;10276348;28;20068;-51
2022/03/18 09:53:09;;;;;;;15.95;10.77;;;;;;;;;;10276375;28;20045;-54
2022/03/18 09:58:07;;;;;;;13.07;10.23;;;;;;;;;;10276349;28;20075;-55
2022/03/18 10:03:09;;;;;;;10.15;7.30;;;;;;;;;;10275920;28;20073;-53
2022/03/18 10:08:09;;;;;;;11.77;7.55;;;;;;;;;;10275365;28;20529;-51
2022/03/18 10:13:08;;;;;;;10.10;7.88;;;;;;;;;;10275792;28;20088;-53
2022/03/18 10:18:10;;;;;;;9.43;7.32;;;;;;;;;;10274890;28;20049;-55
2022/03/18 10:23:21;;;;;;;9.95;7.90;;;;;;;;;;10275469;28;20099;-52
2022/03/18 10:28:37;;;;;;;13.65;7.25;;;;;;;;;;10274977;28;20494;-57
2022/03/18 10:37:04;;;;;;;11.55;7.75;;;;;;;;;;10275403;28;20052;-52
2022/03/18 10:39:21;;;;;;;11.18;7.88;;;;;;;;;;10275296;28;20104;-52
2022/03/18 10:44:20;;;;;;;6.75;5.88;;;;;;;;;;10274956;28;20132;-50
2022/03/18 10:49:21;;;;;;;12.90;7.30;;;;;;;;;;10274993;28;20068;-51
2022/03/18 10:54:28;;;;;;;14.23;6.47;;;;;;;;;;10275650;28;20045;-52
2022/03/18 10:59:27;;;;;;;16.80;11.05;;;;;;;;;;10274239;28;20073;-53
2022/03/18 11:04:28;;;;;;;9.00;6.90;;;;;;;;;;10274979;28;20041;-53
2022/03/18 11:11:06;;;;;;;43.90;23.80;;;;;;;;;;10274742;28;20533;-51
2022/03/18 11:14:46;;;;;;;7.65;6.85;;;;;;;;;;10275129;28;20079;-54
2022/03/18 11:19:45;;;;;;;11.55;6.53;;;;;;;;;;10273556;28;20145;-52
2022/03/18 11:24:46;;;;;;;10.43;8.80;;;;;;;;;;10281761;28;20049;-53
2022/03/18 11:29:44;;;;;;;10.52;9.30;;;;;;;;;;10282286;28;20511;-52
2022/03/18 11:34:45;;;;;;;13.15;8.23;;;;;;;;;;10281015;28;20041;-51
2022/03/18 11:39:46;;;;;;;8.43;7.35;;;;;;;;;;10281575;28;20497;-52
2022/03/18 11:44:45;;;;;;;9.00;6.93;;;;;;;;;;10281495;28;20037;-53
2022/03/18 11:49:44;;;;;;;7.57;6.63;;;;;;;;;;10280662;28;20072;-52
2022/03/18 11:54:51;;;;;;;10.45;7.35;;;;;;;;;;10281051;28;20486;-52
2022/03/18 11:59:53;;;;;;;15.88;8.23;;;;;;;;;;10281076;28;20494;-53
2022/03/18 12:04:54;;;;;;;12.35;7.70;;;;;;;;;;10280177;28;20045;-55
2022/03/18 12:09:55;;;;;;;11.98;7.70;;;;;;;;;;10280904;28;20129;-55
2022/03/18 12:14:54;;;;;;;9.68;6.72;;;;;;;;;;10281073;28;20072;-51
2022/03/18 12:19:53;;;;;;;10.13;6.85;;;;;;;;;;10279373;28;20076;-55
2022/03/18 12:24:52;;;;;;;15.02;8.00;;;;;;;;;;10279905;28;20048;-50
2022/03/18 12:29:57;;;;;;;7.82;6.60;;;;;;;;;;10279727;28;20083;-51
2022/03/18 12:35:01;;;;;;;13.93;9.98;;;;;;;;;;10279274;28;20525;-52
2022/03/18 12:40:05;;;;;;;8.88;6.53;;;;;;;;;;10278250;28;20041;-50
2022/03/18 12:45:04;;;;;;;8.63;6.05;;;;;;;;;;10279002;28;20077;-50
2022/03/18 12:50:03;;;;;;;6.07;5.45;;;;;;;;;;10279187;28;20087;-53
2022/03/18 12:55:05;;;;;;;7.20;5.82;;;;;;;;;;10277865;28;20069;-51
2022/03/18 13:00:08;;;;;;;7.13;5.25;;;;;;;;;;10278580;28;20041;-52
2022/03/18 13:05:29;;;;;;;9.90;6.15;;;;;;;;;;10278588;28;20072;-54
2022/03/18 13:10:28;;;;;;;8.57;6.75;;;;;;;;;;10277925;28;20049;-50
2022/03/18 13:15:29;;;;;;;23.33;13.88;;;;;;;;;;10278778;28;20451;-53
2022/03/18 13:20:28;;;;;;;23.17;11.77;;;;;;;;;;10277021;28;20510;-50
2022/03/18 13:25:27;;;;;;;19.13;11.90;;;;;;;;;;10277889;28;20041;-55
2022/03/18 13:35:46;;;;;;;49.83;26.42;;;;;;;;;;10277817;28;20049;-51
2022/03/18 13:40:54;;;;;;;18.65;11.60;;;;;;;;;;10277139;28;20045;-54
2022/03/18 13:45:53;;;;;;;10.80;6.78;;;;;;;;;;10275127;28;20430;-49
2022/03/18 13:50:54;;;;;;;14.18;7.60;;;;;;;;;;10277157;28;20087;-49
2022/03/18 13:55:52;;;;;;;10.23;6.55;;;;;;;;;;10276573;28;20076;-49
2022/03/18 14:00:51;;;;;;;16.75;9.55;;;;;;;;;;10275700;28;20068;-53
2022/03/18 14:05:57;;;;;;;8.65;7.50;;;;;;;;;;10276585;28;20080;-51
2022/03/18 14:10:59;;;;;;;8.70;7.75;;;;;;;;;;10276214;28;20506;-50
2022/03/18 14:15:58;;;;;;;12.57;6.68;;;;;;;;;;10275396;28;20045;-50
2022/03/18 14:20:57;;;;;;;10.27;7.50;;;;;;;;;;10275117;28;20072;-53
2022/03/18 14:25:58;;;;;;;15.32;8.88;;;;;;;;;;10275861;28;20414;-54
2022/03/18 14:30:56;;;;;;;17.27;10.75;;;;;;;;;;10276045;28;20076;-52
2022/03/18 14:35:55;;;;;;;11.00;8.15;;;;;;;;;;10275773;28;20123;-52
2022/03/18 14:40:53;;;;;;;15.23;9.65;;;;;;;;;;10275807;28;20072;-50
2022/03/18 14:45:53;;;;;;;11.68;8.05;;;;;;;;;;10275794;28;20040;-49
2022/03/18 14:50:52;;;;;;;14.85;11.93;;;;;;;;;;10274351;28;20088;-54
2022/03/18 15:01:07;;;;;;;11.77;8.05;;;;;;;;;;10283691;28;20129;-53
2022/03/18 15:06:05;;;;;;;14.32;10.95;;;;;;;;;;10282137;28;20083;-54
2022/03/18 15:11:04;;;;;;;18.75;14.57;;;;;;;;;;10282746;28;20085;-54
2022/03/18 15:16:02;;;;;;;15.38;10.60;;;;;;;;;;10282880;28;20084;-52
2022/03/18 15:21:02;;;;;;;16.65;9.05;;;;;;;;;;10281402;28;20063;-52
2022/03/18 15:26:02;;;;;;;18.30;14.52;;;;;;;;;;10282769;28;20402;-53
2022/03/18 15:31:00;;;;;;;121.05;90.53;;;;;;;;;;10282279;28;20613;-52
2022/03/18 15:35:59;;;;;;;34.92;27.75;;;;;;;;;;10282198;28;20077;-55
2022/03/18 15:40:58;;;;;;;47.33;31.20;;;;;;;;;;10281903;28;20061;-55
2022/03/18 15:45:57;;;;;;;19.30;14.80;;;;;;;;;;10281912;28;20072;-53
2022/03/18 15:50:59;;;;;;;30.98;16.58;;;;;;;;;;10281354;28;20087;-51
2022/03/18 15:55:59;;;;;;;14.35;10.05;;;;;;;;;;10280506;28;20041;-54
2022/03/18 16:00:57;;;;;;;23.52;15.80;;;;;;;;;;10281128;28;20490;-54
2022/03/18 16:05:57;;;;;;;22.98;14.77;;;;;;;;;;10280796;28;20073;-50
2022/03/18 16:10:57;;;;;;;22.17;15.48;;;;;;;;;;10280385;28;20084;-53
2022/03/18 16:15:57;;;;;;;23.08;15.73;;;;;;;;;;10280468;28;20079;-53
2022/03/18 16:20:56;;;;;;;27.85;17.33;;;;;;;;;;10279110;28;20048;-53
2022/03/18 16:25:54;;;;;;;20.63;11.20;;;;;;;;;;10280069;28;20049;-54
2022/03/18 16:30:54;;;;;;;19.55;11.77;;;;;;;;;;10279839;28;20529;-52
2022/03/18 16:35:53;;;;;;;19.15;12.70;;;;;;;;;;10278726;28;20502;-53
2022/03/18 16:40:52;;;;;;;19.33;10.85;;;;;;;;;;10279464;28;20525;-52
2022/03/18 16:51:07;;;;;;;25.10;14.73;;;;;;;;;;10279231;28;20077;-53
2022/03/18 16:56:05;;;;;;;16.77;12.50;;;;;;;;;;10278994;28;20069;-54
2022/03/18 17:01:04;;;;;;;26.42;15.15;;;;;;;;;;10279059;28;20080;-55
2022/03/18 17:06:03;;;;;;;24.88;15.80;;;;;;;;;;10277565;28;20430;-54
2022/03/18 17:11:07;;;;;;;27.08;18.17;;;;;;;;;;10278410;28;20080;-55
2022/03/18 17:16:06;;;;;;;28.27;16.88;;;;;;;;;;10277878;28;20045;-51
2022/03/18 17:21:04;;;;;;;40.35;24.10;;;;;;;;;;10275883;28;20049;-54
2022/03/18 17:26:02;;;;;;;20.00;14.32;;;;;;;;;;10277862;28;20045;-53
2022/03/18 17:31:03;;;;;;;25.10;16.77;;;;;;;;;;10277681;28;20080;-52
2022/03/18 17:36:01;;;;;;;36.92;18.27;;;;;;;;;;10276363;28;20072;-54
2022/03/18 17:41:00;;;;;;;25.35;15.98;;;;;;;;;;10277229;28;20040;-53
2022/03/18 17:45:58;;;;;;;33.05;18.30;;;;;;;;;;10277380;28;20065;-54
2022/03/18 17:50:58;;;;;;;27.42;20.23;;;;;;;;;;10276924;28;20076;-54
2022/03/18 17:55:57;;;;;;;21.70;16.55;;;;;;;;;;10277030;28;20080;-55
2022/03/18 18:00:56;;;;;;;35.40;23.38;;;;;;;;;;10276594;28;20084;-52
2022/03/18 18:05:55;;;;;;;44.10;28.98;;;;;;;;;;10276654;28;20099;-52
2022/03/18 18:10:56;;;;;;;30.65;22.58;;;;;;;;;;10276416;28;20107;-52
2022/03/18 18:15:56;;;;;;;32.67;27.90;;;;;;;;;;10276073;28;20127;-52
2022/03/18 18:26:17;;;;;;;30.17;17.42;;;;;;;;;;10283189;28;20122;-53
2022/03/18 18:31:17;;;;;;;17.58;13.77;;;;;;;;;;10274138;28;20085;-54
2022/03/18 18:36:17;;;;;;;21.15;14.15;;;;;;;;;;10302274;28;20044;-50
2022/03/18 18:41:17;;;;;;;20.58;15.88;;;;;;;;;;10271653;28;20041;-54
2022/03/18 18:46:16;;;;;;;21.08;15.45;;;;;;;;;;10287134;28;20076;-51
2022/03/18 18:51:17;;;;;;;40.22;23.35;;;;;;;;;;10274053;28;20091;-51
2022/03/18 18:56:16;;;;;;;22.55;14.48;;;;;;;;;;10275525;28;20450;-50
2022/03/18 19:01:14;;;;;;;28.52;16.90;;;;;;;;;;10283144;28;20593;-53
2022/03/18 19:06:13;;;;;;;22.83;13.75;;;;;;;;;;10306190;28;20072;-58
2022/03/18 19:11:12;;;;;;;27.90;17.08;;;;;;;;;;10282735;28;20069;-56
2022/03/18 19:16:14;;;;;;;57.05;30.20;;;;;;;;;;10292754;28;20060;-57
2022/03/18 19:21:13;;;;;;;33.78;18.58;;;;;;;;;;10280715;28;20072;-54
2022/03/18 19:26:11;;;;;;;58.00;28.75;;;;;;;;;;10277724;28;20486;-50
2022/03/18 19:31:10;;;;;;;19.58;13.57;;;;;;;;;;10271952;28;20072;-54
2022/03/18 19:36:10;;;;;;;18.48;12.52;;;;;;;;;;10283004;28;20083;-53
2022/03/18 19:41:08;;;;;;;50.45;19.63;;;;;;;;;;10277963;28;20069;-53
2022/03/18 19:46:06;;;;;;;36.47;24.73;;;;;;;;;;10288923;28;20075;-51
2022/03/18 19:51:05;;;;;;;15.85;12.45;;;;;;;;;;10286017;28;20080;-53
2022/03/18 20:01:20;;;;;;;45.45;31.58;;;;;;;;;;10280442;28;20513;-51
2022/03/18 20:06:19;;;;;;;19.98;10.82;;;;;;;;;;10286578;28;20049;-52
2022/03/18 20:11:18;;;;;;;32.45;26.25;;;;;;;;;;10291060;28;20087;-51
2022/03/18 20:16:17;;;;;;;14.75;11.00;;;;;;;;;;10292403;28;20107;-51
2022/03/18 20:21:15;;;;;;;19.92;13.23;;;;;;;;;;10281029;28;20073;-53
2022/03/18 20:26:13;;;;;;;18.10;12.95;;;;;;;;;;10282328;28;20072;-53
2022/03/18 20:31:13;;;;;;;16.10;10.90;;;;;;;;;;10278430;28;20180;-53
2022/03/18 20:36:11;;;;;;;23.17;16.52;;;;;;;;;;10284891;28;20189;-51
2022/03/18 20:41:11;;;;;;;14.57;11.23;;;;;;;;;;10279574;28;20522;-50
2022/03/18 20:46:10;;;;;;;18.98;13.90;;;;;;;;;;10279974;28;20530;-53
2022/03/18 20:51:10;;;;;;;29.55;16.20;;;;;;;;;;10289943;28;20102;-53
2022/03/18 20:56:08;;;;;;;11.68;8.60;;;;;;;;;;10296833;28;20064;-48
2022/03/18 21:01:06;;;;;;;27.55;17.50;;;;;;;;;;10287644;28;20059;-53
2022/03/18 21:06:05;;;;;;;24.83;17.88;;;;;;;;;;10292508;28;20087;-47
2022/03/18 21:11:05;;;;;;;24.08;15.73;;;;;;;;;;10280098;28;20073;-51
2022/03/18 21:16:03;;;;;;;19.67;11.30;;;;;;;;;;10292607;28;20068;-53
2022/03/18 21:21:02;;;;;;;12.40;8.70;;;;;;;;;;10303155;28;20076;-52
2022/03/18 21:31:17;;;;;;;46.90;24.65;;;;;;;;;;10293182;28;20072;-49
2022/03/18 21:36:18;;;;;;;18.33;11.63;;;;;;;;;;10283440;28;20076;-54
2022/03/18 21:41:17;;;;;;;26.05;17.08;;;;;;;;;;10309864;28;20075;-52
2022/03/18 21:46:16;;;;;;;16.20;10.45;;;;;;;;;;10293438;28;20403;-54
2022/03/18 21:51:15;;;;;;;15.93;11.00;;;;;;;;;;10282279;28;20073;-50
2022/03/18 21:56:15;;;;;;;11.30;8.20;;;;;;;;;;10285882;28;20505;-53
2022/03/18 22:01:15;;;;;;;16.02;10.13;;;;;;;;;;10285510;28;20262;-57
2022/03/18 22:06:13;;;;;;;8.68;6.72;;;;;;;;;;10288439;28;20068;-54
2022/03/18 22:11:19;;;;;;;10.95;7.80;;;;;;;;;;10274527;28;20079;-50
2022/03/18 22:16:17;;;;;;;12.43;9.23;;;;;;;;;;10278418;28;20073;-53
2022/03/18 22:21:15;;;;;;;20.00;11.63;;;;;;;;;;10282838;28;20560;-53
2022/03/18 22:26:19;;;;;;;15.25;10.73;;;;;;;;;;10290598;28;20072;-53
2022/03/18 22:31:17;;;;;;;18.35;10.35;;;;;;;;;;10271745;28;20076;-52
2022/03/18 22:36:15;;;;;;;16.20;11.15;;;;;;;;;;10272679;28;20080;-53
2022/03/18 22:41:13;;;;;;;29.25;14.60;;;;;;;;;;10272141;28;20068;-52
2022/03/18 22:46:13;;;;;;;13.75;11.20;;;;;;;;;;10279723;28;20081;-52
2022/03/18 22:51:12;;;;;;;14.23;9.30;;;;;;;;;;10279027;28;20087;-51
2022/03/18 22:56:10;;;;;;;10.80;8.57;;;;;;;;;;10274150;28;20450;-52
2022/03/18 23:01:09;;;;;;;17.05;7.75;;;;;;;;;;10272630;28;20068;-54
2022/03/18 23:06:09;;;;;;;9.25;8.07;;;;;;;;;;10272617;28;20081;-51
2022/03/18 23:16:26;;;;;;;12.43;6.57;;;;;;;;;;10272501;28;20072;-52
2022/03/18 23:21:26;;;;;;;10.18;6.43;;;;;;;;;;10279875;28;20136;-52
2022/03/18 23:26:26;;;;;;;11.68;7.53;;;;;;;;;;10279827;28;20489;-52
2022/03/18 23:31:27;;;;;;;9.85;8.60;;;;;;;;;;10278543;28;20076;-52
2022/03/18 23:36:27;;;;;;;17.80;12.07;;;;;;;;;;10278489;28;20080;-49
2022/03/18 23:41:26;;;;;;;19.52;12.70;;;;;;;;;;10278484;28;20545;-51
2022/03/18 23:46:24;;;;;;;18.45;11.82;;;;;;;;;;10282886;28;20077;-53
2022/03/18 23:51:23;;;;;;;14.35;10.40;;;;;;;;;;10279139;28;20088;-50
2022/03/18 23:56:22;;;;;;;19.08;10.13;;;;;;;;;;10278203;28;20099;-50
